createdAt,value
2017-09-28T00:00:23.123Z,76.62
2017-09-28T00:01:20.399Z,76.62
2017-09-28T00:02:17.694Z,76.65
2017-09-28T00:03:14.957Z,76.67
2017-09-28T00:04:12.218Z,76.68
2017-09-28T00:05:10.538Z,76.68
2017-09-28T00:06:08.437Z,76.70
2017-09-28T00:07:05.692Z,76.71
2017-09-28T00:08:02.947Z,76.76
2017-09-28T00:09:00.219Z,76.74
2017-09-28T00:09:57.514Z,76.77
2017-09-28T00:10:54.781Z,76.81
2017-09-28T00:11:52.035Z,76.83
2017-09-28T00:12:49.289Z,76.83
2017-09-28T00:13:46.532Z,76.83
2017-09-28T00:14:43.847Z,76.86
2017-09-28T00:15:41.093Z,76.89
2017-09-28T00:16:40.443Z,76.88
2017-09-28T00:17:37.755Z,76.91
2017-09-28T00:18:35.019Z,76.93
2017-09-28T00:19:32.257Z,76.94
2017-09-28T00:20:29.616Z,76.97
2017-09-28T00:21:26.837Z,76.99
2017-09-28T00:22:24.102Z,77.01
2017-09-28T00:23:21.343Z,77.03
2017-09-28T00:24:18.615Z,77.05
2017-09-28T00:25:15.897Z,77.08
2017-09-28T00:26:13.273Z,77.07
2017-09-28T00:27:10.650Z,77.09
2017-09-28T00:28:08.206Z,77.13
2017-09-28T00:29:05.459Z,77.14
2017-09-28T00:30:02.741Z,77.14
2017-09-28T00:31:00.007Z,77.17
2017-09-28T00:31:57.274Z,77.19
2017-09-28T00:32:54.531Z,77.21
2017-09-28T00:33:51.816Z,77.22
2017-09-28T00:34:49.058Z,77.24
2017-09-28T00:35:46.357Z,77.25
2017-09-28T00:36:45.659Z,77.26
2017-09-28T00:37:42.930Z,77.26
2017-09-28T00:38:40.194Z,77.29
2017-09-28T00:39:37.418Z,77.30
2017-09-28T00:40:34.694Z,77.29
2017-09-28T00:41:31.933Z,77.32
2017-09-28T00:42:29.276Z,77.31
2017-09-28T00:43:26.517Z,77.34
2017-09-28T00:44:23.814Z,77.33
2017-09-28T00:45:21.074Z,77.35
2017-09-28T00:46:18.326Z,77.37
2017-09-28T00:47:15.613Z,77.37
2017-09-28T00:48:12.878Z,77.38
2017-09-28T00:49:10.140Z,77.41
2017-09-28T00:50:07.414Z,77.38
2017-09-28T00:51:04.663Z,77.40
2017-09-28T00:52:01.965Z,77.41
2017-09-28T00:52:59.215Z,77.39
2017-09-28T00:53:56.498Z,77.40
2017-09-28T00:54:53.734Z,77.40
2017-09-28T00:55:51.301Z,77.41
2017-09-28T00:56:48.522Z,77.41
2017-09-28T00:57:45.806Z,77.41
2017-09-28T00:58:43.042Z,77.43
2017-09-28T00:59:40.309Z,77.44
2017-09-28T01:00:37.566Z,77.45
2017-09-28T01:01:34.850Z,77.45
2017-09-28T01:02:32.135Z,77.46
2017-09-28T01:03:29.392Z,77.44
2017-09-28T01:04:26.634Z,77.46
2017-09-28T01:05:24.062Z,77.47
2017-09-28T01:06:21.330Z,77.48
2017-09-28T01:07:18.592Z,77.48
2017-09-28T01:08:15.846Z,77.48
2017-09-28T01:09:16.962Z,77.53
2017-09-28T01:10:14.823Z,77.53
2017-09-28T01:11:12.077Z,77.55
2017-09-28T01:12:09.361Z,77.58
2017-09-28T01:13:06.617Z,77.58
2017-09-28T01:14:04.041Z,77.59
2017-09-28T01:15:01.296Z,77.59
2017-09-28T01:15:58.594Z,77.60
2017-09-28T01:16:55.817Z,77.62
2017-09-28T01:17:53.096Z,77.64
2017-09-28T01:18:50.342Z,77.64
2017-09-28T01:19:47.595Z,77.64
2017-09-28T01:20:44.879Z,77.65
2017-09-28T01:21:43.058Z,77.66
2017-09-28T01:22:40.294Z,77.68
2017-09-28T01:23:37.585Z,77.69
2017-09-28T01:24:34.818Z,77.69
2017-09-28T01:25:32.246Z,77.71
2017-09-28T01:26:31.616Z,77.70
2017-09-28T01:27:28.890Z,77.72
2017-09-28T01:28:26.168Z,77.72
2017-09-28T01:29:23.425Z,77.73
2017-09-28T01:30:20.678Z,77.72
2017-09-28T01:31:17.976Z,77.75
2017-09-28T01:32:15.214Z,77.77
2017-09-28T01:33:12.508Z,77.77
2017-09-28T01:34:09.777Z,77.79
2017-09-28T01:35:07.046Z,77.80
2017-09-28T01:36:04.282Z,77.81
2017-09-28T01:37:01.569Z,77.81
2017-09-28T01:37:58.826Z,77.82
2017-09-28T01:38:56.104Z,77.83
2017-09-28T01:39:53.350Z,77.84
2017-09-28T01:40:50.630Z,77.83
2017-09-28T01:41:47.882Z,77.84
2017-09-28T01:42:45.149Z,77.83
2017-09-28T01:43:42.411Z,77.86
2017-09-28T01:44:39.785Z,77.86
2017-09-28T01:45:37.025Z,77.89
2017-09-28T01:46:34.343Z,77.89
2017-09-28T01:47:31.579Z,77.88
2017-09-28T01:48:28.846Z,77.91
2017-09-28T01:49:26.094Z,77.92
2017-09-28T01:50:23.361Z,77.93
2017-09-28T01:51:20.605Z,77.92
2017-09-28T01:52:17.899Z,77.95
2017-09-28T01:53:15.142Z,77.95
2017-09-28T01:54:12.403Z,77.96
2017-09-28T01:55:09.682Z,77.98
2017-09-28T01:56:06.954Z,78.00
2017-09-28T01:57:04.261Z,78.00
2017-09-28T01:58:01.533Z,78.03
2017-09-28T01:58:58.749Z,78.01
2017-09-28T01:59:56.018Z,78.03
2017-09-28T02:00:53.254Z,78.04
2017-09-28T02:01:50.598Z,78.02
2017-09-28T02:02:47.892Z,78.05
2017-09-28T02:03:45.170Z,78.06
2017-09-28T02:04:42.426Z,78.08
2017-09-28T02:05:40.570Z,78.11
2017-09-28T02:06:37.815Z,78.13
2017-09-28T02:07:35.119Z,78.15
2017-09-28T02:08:32.358Z,78.17
2017-09-28T02:09:29.617Z,78.17
2017-09-28T02:10:26.861Z,78.18
2017-09-28T02:11:24.115Z,78.18
2017-09-28T02:12:21.394Z,78.18
2017-09-28T02:13:18.646Z,78.20
2017-09-28T02:14:15.904Z,78.22
2017-09-28T02:15:13.275Z,78.23
2017-09-28T02:16:10.525Z,78.22
2017-09-28T02:17:07.945Z,78.22
2017-09-28T02:18:05.205Z,78.25
2017-09-28T02:19:02.456Z,78.26
2017-09-28T02:19:59.698Z,78.27
2017-09-28T02:20:57.710Z,78.29
2017-09-28T02:21:54.968Z,78.30
2017-09-28T02:22:52.293Z,78.29
2017-09-28T02:23:49.548Z,78.33
2017-09-28T02:24:46.814Z,78.32
2017-09-28T02:25:46.142Z,78.37
2017-09-28T02:26:43.512Z,78.37
2017-09-28T02:27:40.767Z,78.37
2017-09-28T02:28:38.015Z,78.36
2017-09-28T02:29:35.255Z,78.34
2017-09-28T02:30:32.555Z,78.37
2017-09-28T02:31:29.803Z,78.37
2017-09-28T02:32:27.101Z,78.36
2017-09-28T02:33:24.330Z,78.39
2017-09-28T02:34:21.586Z,78.37
2017-09-28T02:35:18.805Z,78.39
2017-09-28T02:36:16.051Z,78.42
2017-09-28T02:37:13.274Z,78.43
2017-09-28T02:38:10.578Z,78.45
2017-09-28T02:39:07.834Z,78.49
2017-09-28T02:40:05.095Z,78.53
2017-09-28T02:41:02.342Z,78.57
2017-09-28T02:41:59.606Z,78.61
2017-09-28T02:42:56.882Z,78.65
2017-09-28T02:43:54.176Z,78.67
2017-09-28T02:44:51.428Z,78.69
2017-09-28T02:45:48.728Z,78.71
2017-09-28T02:46:46.016Z,78.73
2017-09-28T02:47:43.296Z,78.77
2017-09-28T02:48:40.602Z,78.80
2017-09-28T02:49:37.852Z,78.82
2017-09-28T02:50:35.104Z,78.82
2017-09-28T02:51:32.365Z,78.84
2017-09-28T02:52:30.148Z,78.87
2017-09-28T02:53:27.438Z,78.87
2017-09-28T02:54:24.662Z,78.90
2017-09-28T02:55:21.914Z,78.92
2017-09-28T02:56:19.175Z,78.94
2017-09-28T02:57:16.451Z,78.96
2017-09-28T02:58:13.722Z,78.95
2017-09-28T02:59:10.986Z,78.98
2017-09-28T03:00:08.255Z,78.98
2017-09-28T03:01:05.514Z,78.99
2017-09-28T03:02:02.798Z,79.01
2017-09-28T03:03:00.082Z,79.02
2017-09-28T03:03:57.306Z,79.06
2017-09-28T03:04:54.555Z,79.07
2017-09-28T03:05:51.778Z,79.08
2017-09-28T03:06:49.043Z,79.09
2017-09-28T03:07:46.273Z,79.10
2017-09-28T03:08:43.553Z,79.11
2017-09-28T03:09:40.842Z,79.10
2017-09-28T03:10:40.166Z,79.11
2017-09-28T03:11:37.400Z,79.11
2017-09-28T03:12:34.646Z,79.10
2017-09-28T03:13:31.900Z,79.12
2017-09-28T03:14:29.278Z,79.13
2017-09-28T03:15:26.519Z,79.14
2017-09-28T03:16:23.751Z,79.16
2017-09-28T03:17:21.054Z,79.19
2017-09-28T03:18:18.325Z,79.19
2017-09-28T03:19:15.582Z,79.20
2017-09-28T03:20:12.840Z,79.23
2017-09-28T03:21:10.250Z,79.21
2017-09-28T03:22:07.603Z,79.25
2017-09-28T03:23:04.878Z,79.28
2017-09-28T03:24:02.162Z,79.30
2017-09-28T03:24:59.402Z,79.33
2017-09-28T03:25:56.665Z,79.34
2017-09-28T03:26:53.883Z,79.37
2017-09-28T03:27:51.153Z,79.40
2017-09-28T03:28:48.426Z,79.41
2017-09-28T03:29:45.698Z,79.43
2017-09-28T03:30:42.996Z,79.45
2017-09-28T03:31:40.258Z,79.46
2017-09-28T03:32:37.504Z,79.47
2017-09-28T03:33:34.992Z,79.47
2017-09-28T03:34:32.354Z,79.48
2017-09-28T03:35:29.715Z,79.55
2017-09-28T03:36:26.983Z,79.55
2017-09-28T03:37:24.249Z,79.57
2017-09-28T03:38:21.489Z,79.57
2017-09-28T03:39:18.780Z,79.59
2017-09-28T03:40:16.001Z,79.60
2017-09-28T03:41:13.402Z,79.61
2017-09-28T03:42:10.718Z,79.60
2017-09-28T03:43:07.962Z,79.62
2017-09-28T03:44:05.254Z,79.64
2017-09-28T03:45:02.562Z,79.64
2017-09-28T03:45:59.813Z,79.63
2017-09-28T03:46:57.207Z,79.64
2017-09-28T03:47:54.445Z,79.66
2017-09-28T03:48:53.807Z,79.67
2017-09-28T03:49:51.061Z,79.66
2017-09-28T03:50:48.331Z,79.69
2017-09-28T03:51:45.558Z,79.70
2017-09-28T03:52:42.909Z,79.69
2017-09-28T03:53:40.155Z,79.70
2017-09-28T03:54:37.548Z,79.72
2017-09-28T03:55:34.830Z,79.72
2017-09-28T03:56:32.070Z,79.75
2017-09-28T03:57:29.361Z,79.75
2017-09-28T03:58:26.698Z,79.76
2017-09-28T03:59:23.990Z,79.77
2017-09-28T04:00:21.249Z,79.78
2017-09-28T04:01:18.504Z,79.79
2017-09-28T04:02:16.024Z,79.82
2017-09-28T04:03:13.281Z,79.86
2017-09-28T04:04:10.542Z,79.85
2017-09-28T04:05:07.798Z,79.87
2017-09-28T04:06:05.467Z,79.86
2017-09-28T04:07:02.701Z,79.87
2017-09-28T04:07:59.969Z,79.88
2017-09-28T04:08:57.209Z,79.87
2017-09-28T04:09:54.494Z,79.89
2017-09-28T04:10:51.753Z,79.91
2017-09-28T04:11:49.018Z,79.89
2017-09-28T04:12:46.242Z,79.93
2017-09-28T04:13:43.510Z,79.95
2017-09-28T04:14:40.757Z,79.95
2017-09-28T04:15:38.058Z,79.96
2017-09-28T04:16:35.302Z,79.98
2017-09-28T04:17:32.572Z,80.00
2017-09-28T04:18:29.806Z,80.00
2017-09-28T04:19:27.058Z,80.01
2017-09-28T04:20:24.313Z,80.02
2017-09-28T04:21:21.616Z,80.04
2017-09-28T04:22:18.862Z,80.04
2017-09-28T04:23:16.134Z,80.05
2017-09-28T04:24:13.361Z,80.04
2017-09-28T04:25:10.650Z,80.03
2017-09-28T04:26:07.949Z,80.02
2017-09-28T04:27:05.277Z,80.07
2017-09-28T04:28:02.566Z,80.07
2017-09-28T04:28:59.874Z,80.08
2017-09-28T04:29:57.177Z,80.06
2017-09-28T04:30:54.478Z,80.09
2017-09-28T04:31:51.718Z,80.14
2017-09-28T04:32:48.978Z,80.11
2017-09-28T04:33:46.220Z,80.16
2017-09-28T04:34:43.487Z,80.16
2017-09-28T04:35:40.737Z,80.14
2017-09-28T04:36:37.990Z,80.10
2017-09-28T04:37:35.217Z,80.11
2017-09-28T04:38:32.674Z,80.12
2017-09-28T04:39:29.918Z,80.11
2017-09-28T04:40:27.218Z,80.13
2017-09-28T04:41:24.490Z,80.12
2017-09-28T04:42:21.751Z,80.12
2017-09-28T04:43:18.987Z,80.12
2017-09-28T04:44:16.299Z,80.14
2017-09-28T04:45:13.538Z,80.15
2017-09-28T04:46:10.818Z,80.14
2017-09-28T04:47:08.050Z,80.18
2017-09-28T04:48:05.306Z,80.19
2017-09-28T04:49:02.550Z,80.20
2017-09-28T04:49:59.806Z,80.21
2017-09-28T04:50:57.081Z,80.23
2017-09-28T04:51:54.345Z,80.24
2017-09-28T04:52:51.649Z,80.28
2017-09-28T04:53:48.912Z,80.30
2017-09-28T04:54:46.167Z,80.37
2017-09-28T04:55:43.429Z,80.43
2017-09-28T04:56:40.727Z,80.43
2017-09-28T04:57:38.034Z,80.46
2017-09-28T04:58:35.267Z,80.47
2017-09-28T04:59:32.533Z,80.48
2017-09-28T05:00:29.793Z,80.51
2017-09-28T05:01:27.076Z,80.51
2017-09-28T05:02:24.334Z,80.52
2017-09-28T05:03:21.608Z,80.52
2017-09-28T05:04:18.878Z,80.52
2017-09-28T05:05:16.197Z,80.53
2017-09-28T05:06:13.462Z,80.57
2017-09-28T05:07:10.750Z,80.60
2017-09-28T05:08:07.981Z,80.60
2017-09-28T05:09:05.242Z,80.63
2017-09-28T05:10:02.494Z,80.64
2017-09-28T05:10:59.758Z,80.66
2017-09-28T05:11:57.024Z,80.66
2017-09-28T05:12:54.307Z,80.67
2017-09-28T05:13:51.562Z,80.68
2017-09-28T05:14:48.821Z,80.70
2017-09-28T05:15:46.053Z,80.69
2017-09-28T05:16:43.353Z,80.72
2017-09-28T05:17:40.586Z,80.73
2017-09-28T05:18:37.854Z,80.75
2017-09-28T05:19:35.096Z,80.77
2017-09-28T05:20:32.395Z,80.78
2017-09-28T05:21:29.634Z,80.76
2017-09-28T05:22:26.958Z,80.79
2017-09-28T05:23:24.251Z,80.79
2017-09-28T05:24:21.511Z,80.81
2017-09-28T05:25:18.850Z,80.82
2017-09-28T05:26:16.102Z,80.82
2017-09-28T05:27:13.353Z,80.82
2017-09-28T05:28:10.795Z,80.83
2017-09-28T05:29:08.053Z,80.85
2017-09-28T05:30:05.320Z,80.83
2017-09-28T05:31:02.565Z,80.82
2017-09-28T05:31:59.851Z,80.85
2017-09-28T05:32:57.125Z,80.84
2017-09-28T05:33:54.387Z,80.87
2017-09-28T05:34:51.648Z,80.85
2017-09-28T05:35:48.918Z,80.86
2017-09-28T05:36:46.226Z,80.83
2017-09-28T05:37:43.574Z,80.86
2017-09-28T05:38:40.830Z,80.88
2017-09-28T05:39:38.302Z,80.87
2017-09-28T05:40:35.559Z,80.89
2017-09-28T05:41:32.856Z,80.94
2017-09-28T05:42:30.223Z,80.96
2017-09-28T05:43:27.465Z,81.00
2017-09-28T05:44:26.854Z,81.01
2017-09-28T05:45:24.086Z,81.03
2017-09-28T05:46:21.362Z,81.09
2017-09-28T05:47:18.594Z,81.14
2017-09-28T05:48:15.895Z,81.17
2017-09-28T05:49:13.125Z,81.22
2017-09-28T05:50:10.371Z,81.24
2017-09-28T05:51:07.606Z,81.25
2017-09-28T05:52:04.882Z,81.26
2017-09-28T05:53:02.187Z,81.26
2017-09-28T05:54:01.478Z,81.28
2017-09-28T05:54:58.732Z,81.23
2017-09-28T05:55:55.986Z,81.23
2017-09-28T05:56:53.231Z,81.23
2017-09-28T05:57:50.514Z,81.24
2017-09-28T05:58:47.763Z,81.22
2017-09-28T05:59:45.030Z,81.25
2017-09-28T06:00:42.258Z,81.26
2017-09-28T06:01:39.539Z,81.26
2017-09-28T06:02:36.787Z,81.29
2017-09-28T06:03:34.100Z,81.30
2017-09-28T06:04:33.393Z,81.36
2017-09-28T06:05:30.769Z,81.36
2017-09-28T06:06:28.027Z,81.42
2017-09-28T06:07:25.286Z,81.40
2017-09-28T06:08:22.605Z,81.42
2017-09-28T06:09:19.937Z,81.41
2017-09-28T06:10:17.190Z,81.40
2017-09-28T06:11:14.460Z,81.40
2017-09-28T06:12:11.701Z,81.41
2017-09-28T06:13:08.965Z,81.43
2017-09-28T06:14:06.285Z,81.43
2017-09-28T06:15:03.518Z,81.43
2017-09-28T06:16:00.746Z,81.46
2017-09-28T06:16:58.014Z,81.47
2017-09-28T06:17:55.321Z,81.48
2017-09-28T06:18:52.734Z,81.50
2017-09-28T06:19:49.970Z,81.51
2017-09-28T06:20:47.378Z,81.54
2017-09-28T06:21:44.605Z,81.59
2017-09-28T06:22:41.873Z,81.61
2017-09-28T06:23:39.172Z,81.65
2017-09-28T06:24:36.437Z,81.67
2017-09-28T06:25:33.661Z,81.69
2017-09-28T06:26:30.910Z,81.71
2017-09-28T06:27:30.230Z,81.76
2017-09-28T06:28:27.500Z,81.75
2017-09-28T06:29:24.770Z,81.78
2017-09-28T06:30:22.091Z,81.80
2017-09-28T06:31:19.993Z,81.83
2017-09-28T06:32:17.498Z,81.84
2017-09-28T06:33:14.941Z,81.87
2017-09-28T06:34:12.374Z,81.88
2017-09-28T06:35:09.658Z,81.91
2017-09-28T06:36:08.948Z,81.92
2017-09-28T06:37:06.271Z,81.95
2017-09-28T06:38:03.618Z,81.97
2017-09-28T06:39:00.946Z,82.00
2017-09-28T06:39:58.222Z,82.03
2017-09-28T06:40:55.495Z,82.03
2017-09-28T06:41:52.848Z,82.06
2017-09-28T06:42:50.121Z,82.08
2017-09-28T06:43:47.444Z,82.12
2017-09-28T06:44:44.734Z,82.14
2017-09-28T06:45:42.004Z,82.19
2017-09-28T06:46:39.291Z,82.21
2017-09-28T06:47:36.585Z,82.23
2017-09-28T06:48:33.855Z,82.24
2017-09-28T06:49:31.127Z,82.29
2017-09-28T06:50:28.394Z,82.32
2017-09-28T06:51:25.656Z,82.34
2017-09-28T06:52:22.877Z,82.35
2017-09-28T06:53:20.134Z,82.38
2017-09-28T06:54:17.406Z,82.40
2017-09-28T06:55:14.678Z,82.42
2017-09-28T06:56:11.923Z,82.43
2017-09-28T06:57:09.178Z,82.45
2017-09-28T06:58:06.446Z,82.48
2017-09-28T06:59:03.726Z,82.47
2017-09-28T07:00:01.013Z,82.52
2017-09-28T07:00:58.274Z,82.54
2017-09-28T07:01:55.524Z,82.58
2017-09-28T07:02:52.789Z,82.57
2017-09-28T07:03:50.055Z,82.60
2017-09-28T07:04:47.326Z,82.61
2017-09-28T07:05:44.559Z,82.66
2017-09-28T07:06:41.825Z,82.65
2017-09-28T07:07:39.049Z,82.68
2017-09-28T07:08:36.326Z,82.69
2017-09-28T07:09:33.631Z,82.72
2017-09-28T07:10:31.529Z,82.72
2017-09-28T07:11:28.802Z,82.72
2017-09-28T07:12:26.079Z,82.75
2017-09-28T07:13:23.319Z,82.79
2017-09-28T07:14:20.600Z,82.84
2017-09-28T07:15:17.909Z,82.86
2017-09-28T07:16:15.178Z,82.89
2017-09-28T07:17:12.410Z,82.93
2017-09-28T07:18:09.667Z,82.97
2017-09-28T07:19:06.903Z,83.02
2017-09-28T07:20:04.205Z,83.03
2017-09-28T07:21:01.426Z,83.06
2017-09-28T07:21:59.182Z,83.10
2017-09-28T07:22:56.421Z,83.11
2017-09-28T07:23:53.697Z,83.13
2017-09-28T07:24:50.935Z,83.13
2017-09-28T07:25:48.326Z,83.19
2017-09-28T07:26:45.562Z,83.21
2017-09-28T07:27:42.835Z,83.23
2017-09-28T07:28:40.111Z,83.26
2017-09-28T07:29:37.382Z,83.27
2017-09-28T07:30:34.647Z,83.29
2017-09-28T07:31:31.939Z,83.32
2017-09-28T07:32:29.205Z,83.33
2017-09-28T07:33:26.478Z,83.37
2017-09-28T07:34:23.762Z,83.40
2017-09-28T07:35:21.098Z,83.43
2017-09-28T07:36:18.354Z,83.47
2017-09-28T07:37:15.630Z,83.50
2017-09-28T07:38:12.864Z,83.53
2017-09-28T07:39:10.133Z,83.56
2017-09-28T07:40:07.358Z,83.58
2017-09-28T07:41:04.693Z,83.63
2017-09-28T07:42:01.936Z,83.64
2017-09-28T07:42:59.318Z,83.68
2017-09-28T07:43:56.564Z,83.71
2017-09-28T07:44:53.871Z,83.74
2017-09-28T07:45:51.287Z,83.77
2017-09-28T07:46:48.559Z,83.78
2017-09-28T07:47:45.825Z,83.83
2017-09-28T07:48:43.205Z,83.84
2017-09-28T07:49:40.438Z,83.86
2017-09-28T07:50:44.371Z,83.92
2017-09-28T07:51:41.587Z,83.95
2017-09-28T07:52:38.841Z,83.98
2017-09-28T07:53:36.090Z,83.99
2017-09-28T07:54:33.379Z,84.03
2017-09-28T07:55:30.604Z,84.05
2017-09-28T07:56:28.023Z,84.09
2017-09-28T07:57:25.288Z,84.12
2017-09-28T07:58:22.598Z,84.12
2017-09-28T07:59:19.865Z,84.15
2017-09-28T08:00:17.130Z,84.19
2017-09-28T08:01:14.454Z,84.21
2017-09-28T08:02:11.711Z,84.21
2017-09-28T08:03:08.951Z,84.26
2017-09-28T08:04:06.220Z,84.29
2017-09-28T08:05:03.457Z,84.30
2017-09-28T08:06:01.615Z,84.35
2017-09-28T08:06:58.866Z,84.36
2017-09-28T08:07:56.121Z,84.38
2017-09-28T08:08:53.358Z,84.40
2017-09-28T08:09:50.612Z,84.42
2017-09-28T08:10:47.861Z,84.45
2017-09-28T08:11:45.170Z,84.48
2017-09-28T08:12:42.414Z,84.48
2017-09-28T08:13:39.702Z,84.49
2017-09-28T08:14:36.950Z,84.51
2017-09-28T08:15:34.231Z,84.56
2017-09-28T08:16:31.507Z,84.57
2017-09-28T08:17:28.792Z,84.60
2017-09-28T08:18:26.047Z,84.62
2017-09-28T08:19:23.325Z,84.62
2017-09-28T08:20:20.606Z,84.64
2017-09-28T08:21:17.942Z,84.68
2017-09-28T08:22:15.229Z,84.67
2017-09-28T08:23:12.515Z,84.70
2017-09-28T08:24:09.812Z,84.74
2017-09-28T08:25:07.130Z,84.74
2017-09-28T08:26:04.373Z,84.77
2017-09-28T08:27:01.668Z,84.78
2017-09-28T08:27:58.905Z,84.82
2017-09-28T08:28:56.206Z,84.83
2017-09-28T08:29:53.478Z,84.85
2017-09-28T08:30:50.762Z,84.86
2017-09-28T08:31:48.041Z,84.88
2017-09-28T08:32:45.331Z,84.93
2017-09-28T08:33:42.590Z,84.93
2017-09-28T08:34:39.847Z,84.95
2017-09-28T08:35:37.110Z,84.97
2017-09-28T08:36:34.397Z,84.99
2017-09-28T08:37:31.696Z,85.02
2017-09-28T08:38:28.978Z,85.06
2017-09-28T08:39:26.211Z,85.07
2017-09-28T08:40:23.481Z,85.11
2017-09-28T08:41:20.720Z,85.15
2017-09-28T08:42:17.997Z,85.17
2017-09-28T08:43:15.233Z,85.19
2017-09-28T08:44:12.493Z,85.22
2017-09-28T08:45:09.750Z,85.22
2017-09-28T08:46:07.023Z,85.26
2017-09-28T08:47:04.257Z,85.27
2017-09-28T08:48:01.603Z,85.33
2017-09-28T08:48:58.833Z,85.34
2017-09-28T08:49:56.113Z,85.38
2017-09-28T08:50:53.350Z,85.37
2017-09-28T08:51:50.623Z,85.37
2017-09-28T08:52:47.890Z,85.40
2017-09-28T08:53:45.158Z,85.44
2017-09-28T08:54:42.418Z,85.47
2017-09-28T08:55:39.717Z,85.48
2017-09-28T08:56:36.949Z,85.51
2017-09-28T08:57:34.259Z,85.51
2017-09-28T08:58:31.502Z,85.53
2017-09-28T08:59:28.761Z,85.57
2017-09-28T09:00:26.025Z,85.60
2017-09-28T09:01:23.294Z,85.62
2017-09-28T09:02:20.737Z,85.66
2017-09-28T09:03:18.030Z,85.67
2017-09-28T09:04:15.267Z,85.68
2017-09-28T09:05:12.982Z,85.70
2017-09-28T09:06:10.250Z,85.74
2017-09-28T09:07:07.541Z,85.75
2017-09-28T09:08:04.797Z,85.78
2017-09-28T09:09:02.047Z,85.79
2017-09-28T09:09:59.467Z,85.79
2017-09-28T09:10:56.735Z,85.80
2017-09-28T09:11:53.987Z,85.85
2017-09-28T09:12:51.262Z,85.83
2017-09-28T09:13:48.578Z,85.88
2017-09-28T09:14:45.846Z,85.90
2017-09-28T09:15:43.091Z,85.92
2017-09-28T09:16:40.346Z,85.93
2017-09-28T09:17:37.643Z,85.96
2017-09-28T09:18:34.906Z,85.96
2017-09-28T09:19:32.125Z,86.00
2017-09-28T09:20:29.374Z,86.01
2017-09-28T09:21:26.638Z,86.04
2017-09-28T09:22:24.806Z,86.04
2017-09-28T09:23:22.109Z,86.06
2017-09-28T09:24:19.364Z,86.04
2017-09-28T09:25:16.599Z,86.01
2017-09-28T09:26:13.833Z,86.00
2017-09-28T09:27:11.078Z,86.01
2017-09-28T09:28:08.386Z,86.03
2017-09-28T09:29:05.645Z,86.04
2017-09-28T09:30:02.895Z,86.05
2017-09-28T09:31:00.141Z,86.09
2017-09-28T09:31:57.411Z,86.12
2017-09-28T09:32:56.763Z,86.14
2017-09-28T09:33:53.987Z,86.17
2017-09-28T09:34:51.242Z,86.18
2017-09-28T09:35:48.543Z,86.22
2017-09-28T09:36:45.817Z,86.25
2017-09-28T09:37:43.059Z,86.26
2017-09-28T09:38:40.347Z,86.27
2017-09-28T09:39:37.590Z,86.31
2017-09-28T09:40:34.894Z,86.33
2017-09-28T09:41:33.342Z,86.35
2017-09-28T09:42:30.599Z,86.39
2017-09-28T09:43:27.868Z,86.41
2017-09-28T09:44:27.182Z,86.42
2017-09-28T09:45:24.422Z,86.45
2017-09-28T09:46:21.719Z,86.49
2017-09-28T09:47:19.006Z,86.50
2017-09-28T09:48:18.353Z,86.53
2017-09-28T09:49:15.620Z,86.52
2017-09-28T09:50:12.903Z,86.52
2017-09-28T09:51:10.121Z,86.54
2017-09-28T09:52:07.398Z,86.54
2017-09-28T09:53:04.627Z,86.55
2017-09-28T09:54:01.931Z,86.55
2017-09-28T09:54:59.181Z,86.56
2017-09-28T09:55:56.463Z,86.61
2017-09-28T09:56:53.694Z,86.60
2017-09-28T09:57:50.976Z,86.60
2017-09-28T09:58:48.283Z,86.62
2017-09-28T09:59:45.526Z,86.62
2017-09-28T10:00:42.754Z,86.64
2017-09-28T10:01:42.069Z,86.64
2017-09-28T10:02:41.349Z,86.66
2017-09-28T10:03:38.693Z,86.68
2017-09-28T10:04:35.959Z,86.70
2017-09-28T10:05:33.773Z,86.72
2017-09-28T10:06:31.018Z,86.74
2017-09-28T10:07:32.267Z,86.76
2017-09-28T10:08:33.019Z,86.78
2017-09-28T10:09:35.738Z,86.79
2017-09-28T10:10:36.134Z,86.78
2017-09-28T10:11:37.306Z,86.79
2017-09-28T10:12:50.485Z,86.83
2017-09-28T10:13:52.386Z,86.82
2017-09-28T10:14:53.357Z,86.83
2017-09-28T10:15:55.377Z,86.87
2017-09-28T10:16:58.455Z,86.91
2017-09-28T10:17:55.707Z,86.88
2017-09-28T10:18:53.355Z,86.89
2017-09-28T10:19:50.647Z,86.88
2017-09-28T10:20:48.006Z,86.89
2017-09-28T10:21:45.387Z,86.91
2017-09-28T10:22:42.724Z,86.92
2017-09-28T10:23:39.953Z,86.91
2017-09-28T10:24:37.238Z,86.92
2017-09-28T10:25:34.468Z,86.94
2017-09-28T10:26:31.767Z,86.96
2017-09-28T10:27:29.018Z,86.97
2017-09-28T10:28:26.287Z,87.00
2017-09-28T10:29:23.575Z,87.00
2017-09-28T10:30:20.871Z,87.00
2017-09-28T10:31:18.101Z,87.04
2017-09-28T10:32:15.346Z,87.08
2017-09-28T10:33:12.598Z,87.04
2017-09-28T10:34:09.867Z,87.07
2017-09-28T10:35:07.113Z,87.10
2017-09-28T10:36:04.423Z,87.11
2017-09-28T10:37:01.667Z,87.11
2017-09-28T10:37:58.945Z,87.15
2017-09-28T10:38:56.185Z,87.16
2017-09-28T10:39:53.490Z,87.12
2017-09-28T10:40:50.759Z,87.14
2017-09-28T10:41:48.031Z,87.13
2017-09-28T10:42:45.487Z,87.14
2017-09-28T10:43:42.946Z,87.16
2017-09-28T10:44:41.347Z,87.17
2017-09-28T10:45:38.809Z,87.19
2017-09-28T10:46:36.261Z,87.17
2017-09-28T10:47:33.609Z,87.21
2017-09-28T10:48:30.892Z,87.24
2017-09-28T10:49:28.218Z,87.24
2017-09-28T10:50:25.529Z,87.27
2017-09-28T10:51:22.775Z,87.28
2017-09-28T10:52:20.104Z,87.31
2017-09-28T10:53:17.377Z,87.32
2017-09-28T10:54:14.652Z,87.27
2017-09-28T10:55:11.990Z,87.30
2017-09-28T10:56:09.405Z,87.30
2017-09-28T10:57:06.658Z,87.31
2017-09-28T10:58:04.161Z,87.34
2017-09-28T10:59:01.409Z,87.32
2017-09-28T10:59:58.672Z,87.34
2017-09-28T11:00:55.953Z,87.35
2017-09-28T11:01:53.189Z,87.38
2017-09-28T11:02:50.437Z,87.37
2017-09-28T11:03:47.710Z,87.37
2017-09-28T11:04:44.950Z,87.34
2017-09-28T11:05:42.683Z,87.36
2017-09-28T11:06:39.925Z,87.38
2017-09-28T11:07:37.429Z,87.37
2017-09-28T11:08:34.660Z,87.39
2017-09-28T11:09:32.070Z,87.42
2017-09-28T11:10:29.326Z,87.46
2017-09-28T11:11:26.961Z,87.47
2017-09-28T11:12:24.229Z,87.48
2017-09-28T11:13:21.543Z,87.49
2017-09-28T11:14:18.836Z,87.51
2017-09-28T11:15:16.118Z,87.51
2017-09-28T11:16:13.383Z,87.53
2017-09-28T11:17:10.771Z,87.55
2017-09-28T11:18:07.997Z,87.54
2017-09-28T11:19:05.298Z,87.57
2017-09-28T11:20:02.587Z,87.59
2017-09-28T11:20:59.890Z,87.60
2017-09-28T11:21:57.315Z,87.60
2017-09-28T11:22:54.592Z,87.62
2017-09-28T11:23:51.837Z,87.58
2017-09-28T11:24:49.122Z,87.58
2017-09-28T11:25:46.479Z,87.59
2017-09-28T11:26:43.734Z,87.53
2017-09-28T11:27:41.031Z,87.50
2017-09-28T11:28:38.347Z,87.51
2017-09-28T11:29:35.589Z,87.52
2017-09-28T11:30:32.856Z,87.53
2017-09-28T11:31:30.110Z,87.51
2017-09-28T11:32:27.383Z,87.53
2017-09-28T11:33:24.622Z,87.53
2017-09-28T11:34:21.886Z,87.54
2017-09-28T11:35:19.141Z,87.53
2017-09-28T11:36:16.435Z,87.52
2017-09-28T11:37:13.695Z,87.48
2017-09-28T11:38:10.946Z,87.47
2017-09-28T11:39:08.219Z,87.43
2017-09-28T11:40:05.510Z,87.37
2017-09-28T11:41:02.758Z,87.34
2017-09-28T11:42:00.050Z,87.33
2017-09-28T11:42:57.290Z,87.35
2017-09-28T11:43:54.568Z,87.33
2017-09-28T11:44:51.804Z,87.29
2017-09-28T11:45:49.080Z,87.33
2017-09-28T11:46:46.403Z,87.37
2017-09-28T11:47:43.698Z,87.35
2017-09-28T11:48:40.936Z,87.34
2017-09-28T11:49:38.197Z,87.35
2017-09-28T11:50:35.460Z,87.37
2017-09-28T11:51:32.743Z,87.39
2017-09-28T11:52:30.029Z,87.38
2017-09-28T11:53:27.307Z,87.38
2017-09-28T11:54:24.542Z,87.35
2017-09-28T11:55:21.837Z,87.33
2017-09-28T11:56:19.081Z,87.31
2017-09-28T11:57:16.378Z,87.29
2017-09-28T11:58:13.640Z,87.27
2017-09-28T11:59:10.912Z,87.26
2017-09-28T12:00:08.154Z,87.22
2017-09-28T12:01:05.425Z,87.18
2017-09-28T12:02:02.692Z,87.17
2017-09-28T12:03:00.086Z,87.17
2017-09-28T12:03:57.320Z,87.21
2017-09-28T12:04:55.142Z,87.20
2017-09-28T12:05:52.384Z,87.17
2017-09-28T12:06:49.655Z,87.13
2017-09-28T12:07:46.927Z,87.12
2017-09-28T12:08:44.198Z,87.11
2017-09-28T12:09:41.488Z,87.04
2017-09-28T12:10:39.569Z,86.97
2017-09-28T12:11:36.819Z,86.98
2017-09-28T12:12:34.131Z,86.95
2017-09-28T12:13:31.365Z,86.93
2017-09-28T12:14:28.741Z,86.89
2017-09-28T12:15:26.102Z,86.88
2017-09-28T12:16:23.378Z,86.85
2017-09-28T12:17:20.623Z,86.80
2017-09-28T12:18:17.918Z,86.77
2017-09-28T12:19:15.162Z,86.75